METAR Data

Data at: 0551 UTC 28 Sep 2022

METAR for:KLCI (Laconia Muni, NH, US)
Text:KLCI 280456Z AUTO 23005KT 10SM CLR 12/10 A2989 RMK AO2 SLP125 T01170100 402060078
Temperature: 11.7°C ( 53°F)
Dewpoint: 10.0°C ( 50°F) [RH = 89%]
Pressure (altimeter):29.89 inches Hg (1012.3 mb) [Sea level pressure: 1012.5 mb]
Winds:from the SW (230 degrees) at 6 MPH (5 knots; 2.6 m/s)
Visibility:10 or more sm (16+ km)
Ceiling:at least 12,000 feet AGL
Clouds:sky clear below 12,000 feet AGL
QC Flag:automated observation with no human augmentation